This demonstration page uses our WeatherBlox Daily Observations layout. Learn more.

Left ArrowRight Arrow

41.55636, -103.73856

Hourly Observations for July 22, 2015

Temp ( °F °C ) Dew Point ( °F °C ) Humidity (%) Winds ( mph kmh ) Pressure ( in mb ) Visibility ( mi km ) Precip ( " mm )
12:53 am 00:53 Clear 60 15.6 58 14.4 93 93 E 6 9 29.85 1011 10 16.0934 0 0
1:53 am 01:53 Clear 61 16.1 58 14.4 90 90 ESE 7 11 29.82 1010 10 16.0934 0 0
2:53 am 02:53 Clear 59 15 57 13.9 93 93 ESE 8 13 29.81 1009 10 16.0934 0 0
3:53 am 03:53 Clear 59 15 56 13.3 90 90 E 9 15 29.79 1009 10 16.0934 0 0
4:53 am 04:53 Clear 58 14.4 56 13.3 93 93 ESE 9 15 29.79 1009 10 16.0934 0 0
5:53 am 05:53 Sunny 57 13.9 56 13.3 96 96 ESE 8 13 29.8 1009 8 12.87472 0 0
6:53 am 06:53 Sunny 59 15 57 13.9 93 93 ESE 6 9 29.8 1009 8 12.87472 0 0
7:51 am 07:51 Mostly Sunny 63 17 59 15 88 88 E 5 7 29.8 1009 10 16.0934 0 0
7:53 am 07:53 Mostly Sunny 63 17.2 59 15 87 87 E 5 7 29.8 1009 10 16.0934 0 0
8:53 am 08:53 Sunny 67 19.4 59 15 76 76 WNW 5 7 29.8 1009 10 16.0934 0 0
9:53 am 09:53 Sunny 71 21.7 60 15.6 68 68 W 5 7 29.8 1009 10 16.0934 0 0
10:53 am 10:53 Sunny 75 23.9 61 16.1 62 62 VRB 5 7 29.78 1009 10 16.0934 0 0
11:53 am 11:53 Sunny 80 26.7 59 15 49 49 W 7 11 29.77 1008 10 16.0934 0 0
12:53 pm 12:53 Sunny 84 28.9 59 15 43 43 Calm 29.76 1008 10 16.0934 0 0
1:53 pm 13:53 Sunny 86 30 55 12.8 35 35 Calm 29.74 1007 10 16.0934 0 0
2:53 pm 14:53 Sunny 88 31.1 56 13.3 34 34 ENE 5 7 29.73 1007 10 16.0934 0 0
3:53 pm 15:53 Sunny 88 31.1 52 11.1 29 29 ESE 8 13 29.72 1007 10 16.0934 0 0
4:53 pm 16:53 Sunny 84 28.9 55 12.8 37 37 SE 8 13 29.74 1007 10 16.0934 0 0
5:43 pm 17:43 Partly Cloudy 77 25 54 12.2 45 45 W 20 31 29.68 1005 10 16.0934 0 0
5:53 pm 17:53 Mostly Sunny 75 23.9 55 12.8 50 50 W 13 20 29.8 1009 10 16.0934 0 0
6:53 pm 18:53 Mostly Cloudy 79 26.1 50 10 36 36 NW 8 13 29.77 1008 10 16.0934 0 0.0254
7:53 pm 19:53 Sunny 75 23.9 57 13.9 54 54 N 6 9 29.78 1008 10 16.0934 0 0
8:53 pm 20:53 Clear 71 21.7 58 14.4 63 63 WNW 5 7 29.78 1009 10 16.0934 0 0
9:53 pm 21:53 Clear 69 20.6 59 15 70 70 SSE 5 7 29.8 1009 10 16.0934 0 0
10:53 pm 22:53 Clear 67 19.4 58 14.4 73 73 Calm 29.8 1009 10 16.0934 0 0
11:53 pm 23:53 Clear 66 18.9 55 12.8 68 68 S 6 9 29.8 1009 10 16.0934 0 0

Powered by AerisWeather